Lakeville, Ohio
Current Conditions -  °F | °C
As of 3:56 AM on Thursday 23 Oct 2014 (Local Time) from KBJJ Reporting Station
Few Clouds Few Clouds  
Wind Chill: 41°   Ceiling: Unl
Heat Index: 46°   Visibility: 10mi
Dew Point: 42°   Wind: 9mph
Humidity: 86%   Direction: 330°NNW
Pressure: 30.2"   Gusts: NA
Location:  40.66°N, 82.13°W
Report Text: KBJJ 230756Z AUTO 33008KT 10SM FEW013 08/06 A3020 RMK AO2 SLP229 T00780056 TSNO
Loading
Personal Weather Stations






























Interactive Weather Map
Tropical Storm Tracking
New forecast layout! Learn more

10-Day Weather Forecast

Advertisements
Track Severe Weather on mobile